Flight Track Log - Related Links

Times and Time Zones

All times are in EST time to prevent confusion due to time zone crossing. See the SWA1254 flight status page for this flight to view local times or setup timezone preferences in your user account.

Time Position Orientation Groundspeed Altitude Reporting Facility
EST Latitude Longitude Course Direction KTS MPH feet Rate Location/Type
Sun 07:49:30 AM 42.9333 -78.7500 180° South 168 193 1,900  Level Buffalo TRACON
Sun 07:49:36 AM 42.9167 -78.7500 180° South 165 190 2,600 2,207 Climbing Buffalo TRACON
Sun 07:50:57 AM 42.8572 -78.8022 213° Southwest 209 241 5,100 2,408 Climbing Cleveland Center
Sun 07:51:58 AM 42.7889 -78.8353 200° South 245 282 8,300 2,705 Climbing Cleveland Center
Sun 07:52:59 AM 42.7292 -78.8631 199° South 256 295 10,600 1,587 Climbing Cleveland Center
Sun 07:53:59 AM 42.6456 -78.9050 200° South 339 390 11,500 1,587 Climbing Cleveland Center
Sun 07:55:00 AM 42.5542 -78.9467 199° South 349 402 13,800 2,361 Climbing Cleveland Center
Sun 07:56:01 AM 42.4456 -78.9992 200° South 366 421 16,300 2,410 Climbing Cleveland Center
Sun 07:57:02 AM 42.3472 -79.0467 200° South 375 432 18,700 1,967 Climbing Cleveland Center
Sun 07:58:03 AM 42.2467 -79.0928 199° South 383 441 20,300 1,672 Climbing Cleveland Center
Sun 07:59:04 AM 42.1481 -79.1525 204° Southwest 391 450 22,100 1,587 Climbing Cleveland Center
Sun 08:00:04 AM 42.0567 -79.2281 212° Southwest 390 449 23,500 1,339 Climbing Cleveland Center
Sun 08:01:05 AM 41.9611 -79.3050 211° Southwest 400 460 24,800 1,623 Climbing Cleveland Center
Sun 08:02:06 AM 41.8667 -79.3831 212° Southwest 403 464 26,800 1,377 Climbing Cleveland Center
Sun 08:03:07 AM 41.7550 -79.4731 211° Southwest 396 456 27,600 934 Climbing Cleveland Center
Sun 08:04:08 AM 41.6611 -79.5494 211° Southwest 399 459 28,700 1,525 Climbing Cleveland Center
Sun 08:05:09 AM 41.5669 -79.6256 211° Southwest 400 460 30,700 1,820 Climbing Cleveland Center
Sun 08:06:10 AM 41.4792 -79.6939 210° Southwest 374 430 32,400 1,525 Climbing Cleveland Center
Sun 08:07:11 AM 41.3864 -79.7461 203° Southwest 377 434 33,800 793 Climbing Cleveland Center
Sun 08:08:11 AM 41.2797 -79.7617 186° South 387 445 34,000 99 Climbing Cleveland Center
Sun 08:09:12 AM 41.1728 -79.7761 186° South 390 449 34,000  Level Cleveland Center
Sun 08:10:13 AM 41.0578 -79.7925 186° South 404 465 34,000  Level Cleveland Center
Sun 08:11:14 AM 40.9453 -79.8078 186° South 406 467 34,000  Level Cleveland Center
Sun 08:12:15 AM 40.8319 -79.8225 186° South 407 468 34,000  Level Cleveland Center
Sun 08:13:16 AM 40.7175 -79.8392 186° South 411 473 34,000  Level Cleveland Center
Sun 08:14:17 AM 40.6033 -79.8547 186° South 411 473 34,000  Level Cleveland Center
Sun 08:15:18 AM 40.4878 -79.8708 186° South 412 474 34,000  Level Cleveland Center
Sun 08:16:19 AM 40.3708 -79.8881 186° South 416 479 34,000  Level Cleveland Center
Sun 08:17:21 AM 40.2544 -79.9036 186° South 415 478 34,000  Level Cleveland Center
Sun 08:18:22 AM 40.1158 -79.9233 186° South 415 478 34,000  Level Cleveland Center
Sun 08:19:23 AM 39.9997 -79.9381 186° South 418 481 34,000  Level Cleveland Center
Sun 08:20:24 AM 39.8844 -79.9547 186° South 417 480 34,000  Level Cleveland Center
Sun 08:21:25 AM 39.7689 -79.9692 185° South 417 480 34,000  Level Cleveland Center
Sun 08:22:26 AM 39.6550 -79.9847 186° South 414 476 34,000  Level Cleveland Center
Sun 08:23:27 AM 39.5403 -79.9994 186° South 414 476 34,000  Level Cleveland Center
Sun 08:24:11 AM 39.4514 -80.0131 187° South 410 472 34,000  Level Washington Center
Sun 08:25:12 AM 39.3381 -80.0303 187° South 410 472 34,000  Level Washington Center
Sun 08:26:11 AM 39.2231 -80.0419 184° South 410 472 34,000  Level Washington Center
Sun 08:27:12 AM 39.1097 -80.0592 187° South 410 472 34,000  Level Washington Center
Sun 08:28:11 AM 39.0069 -80.0794 189° South 410 472 34,000  Level Washington Center
Sun 08:29:11 AM 38.8933 -80.1019 189° South 410 472 34,000  Level Washington Center
Sun 08:30:12 AM 38.7772 -80.1453 196° South 405 466 34,000  Level Washington Center
Sun 08:31:13 AM 38.6675 -80.1786 193° South 405 466 34,000  Level Washington Center
Sun 08:32:10 AM 38.5617 -80.2169 196° South 405 466 34,000  Level Washington Center
Sun 08:33:11 AM 38.4581 -80.2531 195° South 400 460 34,000  Level Washington Center
Sun 08:34:11 AM 38.3589 -80.2867 195° South 400 460 34,000  Level Washington Center
Sun 08:35:13 AM 38.2531 -80.3247 196° South 400 460 34,000  Level Washington Center
Sun 08:36:10 AM 38.1472 -80.3603 195° South 400 460 34,000  Level Washington Center
Sun 08:37:13 AM 38.0311 -80.3978 194° South 400 460 34,000  Level Washington Center
Sun 08:38:11 AM 37.9275 -80.4333 195° South 400 460 34,000  Level Washington Center
Sun 08:39:13 AM 37.8217 -80.4711 196° South 400 460 34,000  Level Washington Center
Sun 08:40:11 AM 37.7181 -80.5064 195° South 400 460 34,000 607 Level Washington Center
Sun 08:42:11 AM 37.5189 -80.5697 194° South 401 461 35,800 667 Climbing Atlanta Center
Sun 08:43:11 AM 37.4219 -80.6053 196° South 385 443 36,000 100 Climbing Atlanta Center
Sun 08:44:11 AM 37.3125 -80.6417 195° South 375 432 36,000  Level Atlanta Center
Sun 08:45:11 AM 37.2111 -80.6744 194° South 375 432 36,000  Level Atlanta Center
Sun 08:46:11 AM 37.1100 -80.7075 195° South 375 432 36,000  Level Atlanta Center
Sun 08:47:11 AM 37.0042 -80.7250 188° South 380 437 36,000  Level Atlanta Center
Sun 08:48:11 AM 36.9042 -80.7344 184° South 392 451 36,000  Level Atlanta Center
Sun 08:49:11 AM 36.7961 -80.7467 185° South 397 457 36,000  Level Atlanta Center
Sun 08:50:11 AM 36.6839 -80.7564 184° South 403 464 36,000  Level Atlanta Center
Sun 08:51:11 AM 36.5633 -80.7717 186° South 403 464 36,000  Level Atlanta Center
Sun 08:52:11 AM 36.4531 -80.7789 183° South 403 464 36,000  Level Atlanta Center
Sun 08:53:11 AM 36.3408 -80.7936 186° South 403 464 36,000  Level Atlanta Center
Sun 08:54:11 AM 36.2306 -80.8058 185° South 403 464 36,000  Level Atlanta Center
Sun 08:55:11 AM 36.1306 -80.8150 184° South 403 464 36,000  Level Atlanta Center
Sun 08:56:11 AM 36.0206 -80.8269 185° South 403 464 36,000  Level Atlanta Center
Sun 08:57:11 AM 35.9103 -80.8442 187° South 403 464 36,000  Level Atlanta Center
Sun 08:58:11 AM 35.7981 -80.8539 184° South 409 471 36,000  Level Atlanta Center
Sun 08:59:11 AM 35.6731 -80.8611 183° South 404 465 36,000  Level Atlanta Center
Sun 09:00:11 AM 35.5606 -80.8758 186° South 404 465 36,000  Level Atlanta Center
Sun 09:01:11 AM 35.4461 -80.8878 185° South 409 471 36,000  Level Atlanta Center
Sun 09:02:11 AM 35.3317 -80.8972 184° South 409 471 36,000  Level Atlanta Center
Sun 09:04:04 AM 35.1206 -80.9258 186° South 406 467 36,000  Level Jacksonville Center
Sun 09:05:04 AM 35.0083 -80.9361 184° South 406 467 36,000  Level Jacksonville Center
Sun 09:06:04 AM 34.8894 -80.9464 184° South 411 473 36,000  Level Jacksonville Center
Sun 09:07:04 AM 34.7772 -80.9617 186° South 411 473 36,000  Level Jacksonville Center
Sun 09:08:04 AM 34.6647 -80.9742 185° South 416 479 36,000  Level Jacksonville Center
Sun 09:09:04 AM 34.5689 -80.9814 184° South 422 486 36,000  Level Jacksonville Center
Sun 09:10:04 AM 34.4397 -80.9967 186° South 422 486 36,000  Level Jacksonville Center
Sun 09:11:04 AM 34.3253 -81.0069 184° South 422 486 36,000  Level Jacksonville Center
Sun 09:12:04 AM 34.2061 -81.0069 180° South 422 486 36,000  Level Jacksonville Center
Sun 09:13:04 AM 34.0875 -81.0119 182° South 422 486 36,000  Level Jacksonville Center
Sun 09:14:04 AM 33.9686 -81.0144 181° South 422 486 36,000  Level Jacksonville Center
Sun 09:15:04 AM 33.8517 -81.0169 181° South 422 486 36,000  Level Jacksonville Center
Sun 09:16:04 AM 33.7306 -81.0197 181° South 422 486 36,000  Level Jacksonville Center
Sun 09:17:04 AM 33.6139 -81.0219 181° South 422 486 36,000  Level Jacksonville Center
Sun 09:18:04 AM 33.4950 -81.0244 181° South 422 486 36,000  Level Jacksonville Center
Sun 09:19:04 AM 33.3739 -81.0272 181° South 422 486 36,000  Level Jacksonville Center
Sun 09:20:04 AM 33.2550 -81.0322 182° South 422 486 36,000  Level Jacksonville Center
Sun 09:21:04 AM 33.1361 -81.0322 180° South 422 486 36,000  Level Jacksonville Center
Sun 09:22:04 AM 33.0025 -81.0372 182° South 422 486 36,000  Level Jacksonville Center
Sun 09:23:04 AM 32.8836 -81.0397 181° South 427 491 36,000  Level Jacksonville Center
Sun 09:24:04 AM 32.7647 -81.0397 180° South 427 491 36,000  Level Jacksonville Center
Sun 09:25:04 AM 32.6478 -81.0422 181° South 421 484 36,000  Level Jacksonville Center
Sun 09:26:04 AM 32.5289 -81.0444 181° South 424 488 36,000  Level Jacksonville Center
Sun 09:27:04 AM 32.4142 -81.0469 181° South 418 481 36,000  Level Jacksonville Center
Sun 09:28:04 AM 32.2992 -81.0492 181° South 418 481 36,000  Level Jacksonville Center
Sun 09:29:04 AM 32.1822 -81.0467 179° South 418 481 36,000  Level Jacksonville Center
Sun 09:30:04 AM 32.0697 -81.0514 182° South 439 505 36,000  Level Jacksonville Center
Sun 09:31:04 AM 31.9403 -81.0564 182° South 439 505 36,000  Level Jacksonville Center
Sun 09:32:04 AM 31.8233 -81.0611 182° South 433 498 36,000  Level Jacksonville Center
Sun 09:33:04 AM 31.7169 -81.0633 181° South 423 487 36,000  Level Jacksonville Center
Sun 09:34:04 AM 31.5856 -81.0658 181° South 423 487 36,000  Level Jacksonville Center
Sun 09:35:04 AM 31.4686 -81.0681 181° South 423 487 36,000  Level Jacksonville Center
Sun 09:36:04 AM 31.3600 -81.0703 181° South 423 487 36,000  Level Jacksonville Center
Sun 09:37:04 AM 31.2286 -81.0753 182° South 423 487 36,000  Level Jacksonville Center
Sun 09:38:04 AM 31.1097 -81.0775 181° South 428 493 36,000  Level Jacksonville Center
Sun 09:39:04 AM 30.9906 -81.0822 182° South 428 493 36,000  Level Jacksonville Center
Sun 09:40:04 AM 30.8694 -81.0700 175° South 428 493 36,000  Level Jacksonville Center
Sun 09:41:04 AM 30.7500 -81.0336 165° South 433 498 36,000  Level Jacksonville Center
Sun 09:42:04 AM 30.6283 -81.0000 167° South 444 511 36,000  Level Jacksonville Center
Sun 09:43:04 AM 30.5067 -80.9636 166° South 449 517 36,000  Level Jacksonville Center
Sun 09:44:04 AM 30.3850 -80.9275 166° South 454 522 36,000  Level Jacksonville Center
Sun 09:45:04 AM 30.2633 -80.8892 165° South 454 522 36,000  Level Jacksonville Center
Sun 09:46:04 AM 30.1397 -80.8558 167° South 454 522 36,000  Level Jacksonville Center
Sun 09:47:51 AM 29.9342 -80.7911 165° South 475 547 36,000  Level Miami Center
Sun 09:48:51 AM 29.8119 -80.7578 167° South 469 540 36,000  Level Miami Center
Sun 09:49:51 AM 29.6858 -80.7222 166° South 469 540 36,000  Level Miami Center
Sun 09:50:51 AM 29.5639 -80.6844 165° South 469 540 36,000  Level Miami Center
Sun 09:51:51 AM 29.4436 -80.6542 168° South 469 540 36,000  Level Miami Center
Sun 09:52:51 AM 29.3194 -80.6189 166° South 462 532 36,000  Level Miami Center
Sun 09:53:51 AM 29.1956 -80.5789 164° South 462 532 36,000  Level Miami Center
Sun 09:54:51 AM 29.0758 -80.5250 159° South 462 532 36,000  Level Miami Center
Sun 09:55:51 AM 28.9542 -80.4736 160° South 462 532 36,000  Level Miami Center
Sun 09:56:51 AM 28.8261 -80.4172 159° South 456 525 36,000  Level Miami Center
Sun 09:57:51 AM 28.7169 -80.3689 159° South 461 531 36,000  Level Miami Center
Sun 09:58:51 AM 28.5992 -80.3203 160° South 456 525 36,000  Level Miami Center
Sun 09:59:51 AM 28.4689 -80.2642 159° South 456 525 36,000  Level Miami Center
Sun 10:00:51 AM 28.3511 -80.2136 159° South 456 525 36,000  Level Miami Center
Sun 10:01:51 AM 28.2356 -80.1653 160° South 450 518 36,000  Level Miami Center
Sun 10:02:51 AM 28.1319 -80.1222 160° South 445 512 36,000  Level Miami Center
Sun 10:03:51 AM 28.0039 -80.0669 159° South 445 512 36,000  Level Miami Center
Sun 10:04:51 AM 27.8881 -80.0167 159° South 445 512 36,000 -1,200 Level Miami Center
Sun 10:05:51 AM 27.7639 -79.9661 160° South 463 533 33,600 -2,600 Descending Miami Center
Sun 10:06:51 AM 27.6439 -79.9161 160° South 463 533 30,800 -2,100 Descending Miami Center
Sun 10:07:51 AM 27.5406 -79.8711 159° South 458 527 29,400 -1,500 Descending Miami Center
Sun 10:08:51 AM 27.4181 -79.8375 166° South 453 521 27,800 -1,700 Descending Miami Center
Sun 10:09:51 AM 27.2808 -79.8083 169° South 453 521 26,000 -2,150 Descending Miami Center
Sun 10:10:51 AM 27.1561 -79.7772 167° South 453 521 23,500 -2,450 Descending Miami Center
Sun 10:11:51 AM 27.0500 -79.7533 169° South 448 516 21,100 -2,350 Descending Miami Center
Sun 10:12:51 AM 26.9336 -79.7272 169° South 436 502 18,800 -2,450 Descending Miami Center
Sun 10:13:51 AM 26.8111 -79.6986 168° South 422 486 16,200 -2,450 Descending Miami Center
Sun 10:14:51 AM 26.7169 -79.7033 183° South 361 415 13,900 -2,755 Descending Miami Center
Sun 10:15:29 AM 26.6431 -79.7364 202° Southwest 369 425 11,700 -3,200 Descending Miami Center
Sun 10:15:51 AM 26.6094 -79.7519 202° Southwest 372 428 10,700 -2,432 Descending Miami Center
Sun 10:16:43 AM 26.5336 -79.7894 204° Southwest 342 394 8,700 -2,200 Descending Miami Center
Sun 10:16:51 AM 26.5314 -79.7894 180° South 360 414 8,500 -590 Descending Miami Center
Sun 10:17:44 AM 26.4469 -79.8292 203° Southwest 294 338 8,100 -500 Descending Miami Center
Sun 10:17:51 AM 26.4428 -79.8314 206° Southwest 328 377 8,000  Descending Miami Center
Sun 10:18:46 AM 26.3753 -79.8644 204° Southwest 285 328 8,100  Climbing Miami Center
Sun 10:18:51 AM 26.3775 -79.8644 360° North 295 339 8,000 -590 Descending Miami Center
Sun 10:19:47 AM 26.3136 -79.9231 219° Southwest 277 319 7,500 -700 Descending Miami Center
Sun 10:19:51 AM 26.3133 -79.9253 262° West 288 331 7,300 -938 Descending Miami Center
Sun 10:20:51 AM 26.2578 -79.9842 224° Southwest 283 326 6,500 -637 Descending Miami Center
Sun 10:21:44 AM 26.2025 -80.0336 219° Southwest 288 331 6,100 -500 Descending Miami Center
Sun 10:21:51 AM 26.1961 -80.0406 224° Southwest 283 326 6,000 -98 Descending Miami Center
Sun 10:22:45 AM 26.1633 -80.1114 243° Southwest 247 284 6,000  Level Miami Center
Sun 10:22:51 AM 26.1592 -80.1111 177° South 283 326 6,000 -218 Level Miami Center
Sun 10:23:40 AM 26.1450 -80.1756 256° West 244 281 5,800 -300 Descending Miami Center
Sun 10:23:51 AM 26.1489 -80.1872 290° West 261 300 5,700 -1,075 Descending Miami Center
Sun 10:24:47 AM 26.1475 -80.2567 269° West 239 275 4,600 -1,200 Descending Miami Center
Sun 10:24:51 AM 26.1494 -80.2592 311° West 239 275 4,500 -492 Descending Miami Center
Sun 10:25:48 AM 26.1478 -80.3308 269° West 226 260 4,100 -504 Descending Miami Center
Sun 10:26:50 AM 26.1378 -80.3975 261° West 217 250 3,500 -564 Descending Miami Center
Sun 10:27:45 AM 26.0919 -80.3917 173° South 177 204 3,000 -689 Descending Miami Center
Sun 10:28:52 AM 26.0767 -80.3381 108° East 183 211 2,100 -537 Descending Miami Center
Sun 10:29:48 AM 26.0736 -80.2847 94° East 181 208 1,900 -564 Descending Miami Center
Sun 10:30:49 AM 26.0750 -80.2292 88° East 168 193 1,000 -787 Descending Miami Center
Sun 10:31:50 AM 26.0739 -80.1875 92° East 133 153 300 -689 Descending Miami Center
Sun 10:33:00 AM 26.0667 -80.1500 103° East  Level FlightAware Approximate
Sun 10:40:00 AM 26.0726 -80.1527 103° East  Level Estimated

Login

Don't have an account? Register now (free) for customized features, flight alerts, and more!